createdAt,value
2023-03-26T00:01:21.410Z,99030.66
2023-03-26T00:03:53.865Z,99027.64
2023-03-26T00:06:27.130Z,99033.23
2023-03-26T00:08:59.279Z,99037.24
2023-03-26T00:11:29.436Z,99029.23
2023-03-26T00:13:58.126Z,99029.94
2023-03-26T00:16:28.973Z,99027.30
2023-03-26T00:18:58.056Z,99029.80
2023-03-26T00:21:28.458Z,99029.14
2023-03-26T00:23:59.853Z,99031.10
2023-03-26T00:26:29.723Z,99029.27
2023-03-26T00:29:01.867Z,99025.20
2023-03-26T00:31:30.420Z,99020.58
2023-03-26T00:33:58.396Z,99014.77
2023-03-26T00:36:26.899Z,99013.25
2023-03-26T00:38:55.525Z,99013.84
2023-03-26T00:41:26.453Z,99012.10
2023-03-26T00:43:57.648Z,99009.52
2023-03-26T00:46:28.028Z,99012.83
2023-03-26T00:48:59.929Z,99016.61
2023-03-26T00:51:28.724Z,99012.52
2023-03-26T00:53:57.804Z,99011.23
2023-03-26T00:56:26.856Z,99015.10
2023-03-26T00:58:54.912Z,99017.20
2023-03-26T01:01:28.472Z,99019.50
2023-03-26T01:04:07.562Z,99020.34
2023-03-26T01:06:41.461Z,99014.35
2023-03-26T01:09:18.820Z,99014.48
2023-03-26T01:11:48.779Z,99021.94
2023-03-26T01:14:26.854Z,99017.86
2023-03-26T01:16:57.143Z,99018.23
2023-03-26T01:19:25.016Z,99018.23
2023-03-26T01:21:52.987Z,99020.16
2023-03-26T01:24:22.299Z,99014.77
2023-03-26T01:27:09.681Z,99017.36
2023-03-26T01:30:07.084Z,99018.66
2023-03-26T01:32:51.704Z,99023.88
2023-03-26T01:35:25.681Z,99022.78
2023-03-26T01:38:11.380Z,99018.35
2023-03-26T01:40:55.363Z,99019.80
2023-03-26T01:43:33.380Z,99023.71
2023-03-26T01:46:04.384Z,99017.90
2023-03-26T01:48:38.685Z,99019.04
2023-03-26T01:51:07.465Z,99016.92
2023-03-26T01:53:38.313Z,99014.90
2023-03-26T01:56:19.951Z,99014.54
2023-03-26T01:59:09.486Z,99016.23
2023-03-26T02:02:01.223Z,99006.94
2023-03-26T02:04:53.297Z,99006.30
2023-03-26T02:07:28.750Z,99006.88
2023-03-26T02:09:59.688Z,99004.17
2023-03-26T02:12:28.064Z,99002.58
2023-03-26T02:14:56.341Z,98999.91
2023-03-26T02:17:24.583Z,99013.80
2023-03-26T02:19:54.268Z,99006.42
2023-03-26T02:22:23.008Z,99003.30
2023-03-26T02:24:51.036Z,99003.49
2023-03-26T02:27:19.276Z,99008.38
2023-03-26T02:29:47.880Z,99005.46
2023-03-26T02:32:19.391Z,99009.95
2023-03-26T02:34:47.486Z,98997.13
2023-03-26T02:37:18.897Z,99001.34
2023-03-26T02:39:47.763Z,99004.05
2023-03-26T02:42:24.795Z,99006.48
2023-03-26T02:44:53.839Z,99001.63
2023-03-26T02:47:21.997Z,99007.94
2023-03-26T02:49:53.566Z,99007.39
2023-03-26T02:52:26.375Z,99005.70
2023-03-26T02:54:56.589Z,99005.77
2023-03-26T02:57:26.396Z,99004.02
2023-03-26T03:00:15.294Z,99004.73
2023-03-26T03:03:06.686Z,99001.63
2023-03-26T03:05:35.194Z,99002.91
2023-03-26T03:08:23.643Z,98996.38
2023-03-26T03:11:27.355Z,99000.98
2023-03-26T03:13:55.495Z,99004.86
2023-03-26T03:16:25.878Z,99005.73
2023-03-26T03:18:57.428Z,99002.70
2023-03-26T03:21:36.296Z,99007.34
2023-03-26T03:24:08.060Z,99006.20
2023-03-26T03:26:38.823Z,99004.61
2023-03-26T03:29:16.747Z,99006.88
2023-03-26T03:31:44.816Z,99006.98
2023-03-26T03:34:25.545Z,99003.15
2023-03-26T03:36:53.833Z,99003.45
2023-03-26T03:39:42.266Z,99004.94
2023-03-26T03:42:13.424Z,99008.62
2023-03-26T03:44:44.401Z,99009.85
2023-03-26T03:47:26.733Z,99010.40
2023-03-26T03:49:54.787Z,99007.70
2023-03-26T03:52:25.174Z,99011.88
2023-03-26T03:54:53.582Z,99011.75
2023-03-26T03:57:44.351Z,99013.36
2023-03-26T04:00:17.986Z,99012.05
2023-03-26T04:02:50.556Z,99011.63
2023-03-26T04:05:18.946Z,99022.21
2023-03-26T04:07:48.609Z,99023.27
2023-03-26T04:10:52.102Z,99020.36
2023-03-26T04:13:38.702Z,99025.72
2023-03-26T04:16:19.190Z,99025.20
2023-03-26T04:18:49.633Z,99020.15
2023-03-26T04:21:17.577Z,99017.15
2023-03-26T04:23:45.999Z,99020.83
2023-03-26T04:26:25.178Z,99019.59
2023-03-26T04:29:06.818Z,99015.96
2023-03-26T04:31:38.349Z,99020.01
2023-03-26T04:34:13.634Z,99022.18
2023-03-26T04:36:54.686Z,99026.32
2023-03-26T04:39:34.089Z,99021.02
2023-03-26T04:42:33.419Z,99021.37
2023-03-26T04:45:09.329Z,99021.17
2023-03-26T04:47:39.136Z,99025.38
2023-03-26T04:50:09.344Z,99024.03
2023-03-26T04:52:38.285Z,99027.34
2023-03-26T04:55:39.841Z,99026.19
2023-03-26T04:58:14.358Z,99020.16
2023-03-26T05:01:09.857Z,99017.74
2023-03-26T05:03:41.311Z,99024.77
2023-03-26T05:06:11.461Z,99028.83
2023-03-26T05:08:39.368Z,99024.19
2023-03-26T05:11:11.541Z,99024.61
2023-03-26T05:13:42.844Z,99022.45
2023-03-26T05:16:12.559Z,99025.89
2023-03-26T05:18:53.107Z,99024.66
2023-03-26T05:21:25.836Z,99028.23
2023-03-26T05:23:54.063Z,99033.48
2023-03-26T05:26:22.990Z,99033.45
2023-03-26T05:28:52.797Z,99033.95
2023-03-26T05:31:41.391Z,99037.76
2023-03-26T05:34:09.590Z,99034.35
2023-03-26T05:36:37.954Z,99034.41
2023-03-26T05:39:27.072Z,99038.59
2023-03-26T05:42:10.334Z,99034.66
2023-03-26T05:44:54.289Z,99036.00
2023-03-26T05:47:26.394Z,99031.03
2023-03-26T05:49:54.599Z,99036.67
2023-03-26T05:52:23.007Z,99033.83
2023-03-26T05:55:29.201Z,99036.20
2023-03-26T05:58:15.953Z,99039.57
2023-03-26T06:01:08.677Z,99037.95
2023-03-26T06:03:57.037Z,99040.92
2023-03-26T06:06:28.904Z,99046.95
2023-03-26T06:09:01.767Z,99044.73
2023-03-26T06:11:35.066Z,99045.14
2023-03-26T06:14:05.729Z,99055.42
2023-03-26T06:16:34.371Z,99058.55
2023-03-26T06:19:38.023Z,99057.23
2023-03-26T06:22:24.864Z,99059.63
2023-03-26T06:25:24.932Z,99058.65
2023-03-26T06:28:06.190Z,99058.89
2023-03-26T06:30:53.968Z,99058.70
2023-03-26T06:33:51.484Z,99062.31
2023-03-26T06:36:19.665Z,99060.34
2023-03-26T06:38:50.705Z,99062.30
2023-03-26T06:41:18.705Z,99058.58
2023-03-26T06:44:16.101Z,99063.05
2023-03-26T06:47:02.732Z,99064.24
2023-03-26T06:49:49.386Z,99063.16
2023-03-26T06:52:20.000Z,99068.15
2023-03-26T06:55:10.454Z,99063.45
2023-03-26T06:57:51.311Z,99066.31
2023-03-26T07:00:38.801Z,99062.09
2023-03-26T07:03:25.830Z,99065.59
2023-03-26T07:06:12.282Z,99062.89
2023-03-26T07:08:59.066Z,99064.39
2023-03-26T07:11:32.167Z,99063.11
2023-03-26T07:14:18.948Z,99069.27
2023-03-26T07:17:10.748Z,99065.61
2023-03-26T07:19:49.243Z,99075.10
2023-03-26T07:22:23.296Z,99076.67
2023-03-26T07:25:11.054Z,99078.28
2023-03-26T07:28:06.544Z,99076.77
2023-03-26T07:31:03.909Z,99081.58
2023-03-26T07:33:50.575Z,99078.13
2023-03-26T07:36:57.915Z,99076.52
2023-03-26T07:40:15.175Z,99070.90
2023-03-26T07:43:13.567Z,99072.09
2023-03-26T07:46:01.211Z,99067.62
2023-03-26T07:48:54.989Z,99059.05
2023-03-26T07:51:43.563Z,99058.49
2023-03-26T07:54:29.035Z,99061.47
2023-03-26T07:58:21.563Z,99052.89
2023-03-26T08:01:23.219Z,99052.19
2023-03-26T08:04:23.174Z,99050.42
2023-03-26T08:07:31.275Z,99049.05
2023-03-26T08:10:27.682Z,99052.33
2023-03-26T08:13:29.590Z,99049.92
2023-03-26T08:16:08.980Z,99043.09
2023-03-26T08:18:56.861Z,99064.85
2023-03-26T08:21:31.933Z,99062.33
2023-03-26T08:24:13.341Z,99064.04
2023-03-26T08:27:08.828Z,99068.81
2023-03-26T08:29:45.315Z,99061.24
2023-03-26T08:32:16.335Z,99058.02
2023-03-26T08:34:45.455Z,99054.79
2023-03-26T08:37:13.674Z,99059.38
2023-03-26T08:39:42.548Z,99064.61
2023-03-26T08:42:46.166Z,99060.71
2023-03-26T08:45:36.141Z,99062.48
2023-03-26T08:48:35.622Z,99056.14
2023-03-26T08:51:13.766Z,99052.95
2023-03-26T08:54:13.368Z,99052.73
2023-03-26T08:57:03.954Z,99055.13
2023-03-26T08:59:47.180Z,99049.19
2023-03-26T14:02:42.612Z,98849.58
2023-03-26T14:05:28.631Z,98852.19
2023-03-26T14:08:52.417Z,98856.94
2023-03-26T14:11:28.238Z,98855.30
2023-03-26T14:14:10.953Z,98856.34
2023-03-26T14:16:47.191Z,98860.08
2023-03-26T14:19:34.028Z,98857.47
2023-03-26T14:22:18.348Z,98849.17
2023-03-26T14:25:02.752Z,98849.94
2023-03-26T14:27:51.743Z,98841.85
2023-03-26T14:30:49.104Z,98842.54
2023-03-26T14:33:55.538Z,98834.80
2023-03-26T14:36:54.757Z,98835.86
2023-03-26T14:39:38.671Z,98833.05
2023-03-26T14:42:15.393Z,98826.53
2023-03-26T14:44:56.751Z,98823.13
2023-03-26T14:47:25.378Z,98818.53
2023-03-26T14:50:28.818Z,98816.50
2023-03-26T14:53:01.355Z,98820.87
2023-03-26T14:56:13.722Z,98815.48
2023-03-26T14:59:18.978Z,98815.57
2023-03-26T15:02:25.277Z,98814.38
2023-03-26T15:05:07.238Z,98821.55
2023-03-26T15:07:51.134Z,98816.86
2023-03-26T15:10:47.287Z,98815.89
2023-03-26T15:13:56.312Z,98805.29
2023-03-26T15:16:46.407Z,98809.02
2023-03-26T15:19:23.548Z,98807.95
2023-03-26T15:22:36.255Z,98809.83
2023-03-26T15:25:09.899Z,98810.47
2023-03-26T15:28:21.519Z,98806.56
2023-03-26T15:31:19.172Z,98800.01
2023-03-26T15:34:08.939Z,98809.56
2023-03-26T15:37:05.276Z,98808.54
2023-03-26T15:40:08.112Z,98802.09
2023-03-26T15:43:03.041Z,98797.96
2023-03-26T15:45:41.389Z,98799.31
2023-03-26T15:48:12.439Z,98796.58
2023-03-26T15:51:26.138Z,98799.34
2023-03-26T15:54:23.758Z,98794.28
2023-03-26T15:57:03.244Z,98795.31
2023-03-26T15:59:52.483Z,98791.75
2023-03-26T16:02:43.878Z,98792.20
2023-03-26T16:05:33.600Z,98792.96
2023-03-26T16:08:19.101Z,98789.77
2023-03-26T16:11:08.203Z,98789.06
2023-03-26T16:13:41.284Z,98789.78
2023-03-26T16:17:13.086Z,98786.78
2023-03-26T16:20:20.254Z,98783.97
2023-03-26T16:22:55.015Z,98786.45
2023-03-26T16:25:28.674Z,98786.54
2023-03-26T16:28:09.594Z,98781.77
2023-03-26T16:30:38.297Z,98782.11
2023-03-26T16:33:31.996Z,98783.79
2023-03-26T16:36:02.020Z,98786.02
2023-03-26T16:38:59.537Z,98780.74
2023-03-26T16:41:32.567Z,98777.29
2023-03-26T16:44:28.336Z,98773.45
2023-03-26T16:47:18.557Z,98778.95
2023-03-26T16:50:08.984Z,98781.10
2023-03-26T16:52:44.139Z,98775.89
2023-03-26T16:55:31.072Z,98782.77
2023-03-26T16:58:17.231Z,98781.21
2023-03-26T17:00:48.597Z,98778.61
2023-03-26T17:03:35.564Z,98776.83
2023-03-26T17:06:20.910Z,98775.89
2023-03-26T17:09:18.070Z,98775.05
2023-03-26T17:12:04.779Z,98775.89
2023-03-26T17:14:50.217Z,98776.25
2023-03-26T17:17:23.831Z,98780.02
2023-03-26T17:19:59.559Z,98776.89
2023-03-26T17:22:41.941Z,98781.92
2023-03-26T17:25:57.524Z,98779.77
2023-03-26T17:28:42.772Z,98774.80
2023-03-26T17:31:19.812Z,98778.05
2023-03-26T17:33:48.121Z,98776.34
2023-03-26T17:36:22.147Z,98779.45
2023-03-26T17:38:49.998Z,98779.85
2023-03-26T17:42:23.244Z,98780.89
2023-03-26T17:44:55.992Z,98784.95
2023-03-26T17:47:54.029Z,98785.31
2023-03-26T17:50:50.896Z,98787.96
2023-03-26T17:53:38.610Z,98788.78
2023-03-26T17:56:16.873Z,98785.00
2023-03-26T17:58:50.885Z,98783.40
2023-03-26T18:01:37.097Z,98788.06
2023-03-26T18:04:19.954Z,98784.15
2023-03-26T18:07:06.764Z,98781.90
2023-03-26T18:10:06.794Z,98782.39
2023-03-26T18:12:42.520Z,98787.73
2023-03-26T18:15:30.594Z,98788.03
2023-03-26T18:18:46.636Z,98790.84
2023-03-26T18:21:33.699Z,98793.63
2023-03-26T18:24:03.999Z,98799.96
2023-03-26T18:26:42.081Z,98798.63
2023-03-26T18:29:17.443Z,98800.43
2023-03-26T18:31:46.783Z,98798.46
2023-03-26T18:34:19.711Z,98798.30
2023-03-26T18:37:10.253Z,98791.73
2023-03-26T18:45:32.334Z,98788.73
2023-03-26T18:48:13.794Z,98779.19
2023-03-26T18:50:42.467Z,98781.63
2023-03-26T18:53:20.729Z,98779.51
2023-03-26T18:55:50.791Z,98776.46
2023-03-26T18:58:27.582Z,98774.99
2023-03-26T19:01:04.346Z,98778.10
2023-03-26T19:03:39.979Z,98775.65
2023-03-26T19:06:11.063Z,98772.46
2023-03-26T19:08:42.562Z,98774.42
2023-03-26T19:11:12.052Z,98770.92
2023-03-26T19:13:44.282Z,98776.90
2023-03-26T19:16:24.411Z,98773.83
2023-03-26T19:18:52.881Z,98771.48
2023-03-26T19:21:23.316Z,98765.59
2023-03-26T19:23:52.315Z,98762.92
2023-03-26T19:26:22.913Z,98758.23
2023-03-26T19:28:53.817Z,98759.98
2023-03-26T19:31:30.385Z,98758.96
2023-03-26T19:34:00.681Z,98762.73
2023-03-26T19:36:32.142Z,98760.33
2023-03-26T19:39:02.609Z,98761.18
2023-03-26T19:41:32.133Z,98762.52
2023-03-26T19:44:03.425Z,98764.39
2023-03-26T19:46:53.896Z,98766.18
2023-03-26T19:49:42.589Z,98762.85
2023-03-26T19:52:18.450Z,98765.91
2023-03-26T19:55:01.361Z,98761.87
2023-03-26T19:57:36.453Z,98754.92
2023-03-26T20:00:13.748Z,98754.08
2023-03-26T20:02:43.362Z,98756.11
2023-03-26T20:05:26.446Z,98750.11
2023-03-26T20:07:58.478Z,98751.73
2023-03-26T20:10:27.630Z,98747.12
2023-03-26T20:12:56.253Z,98748.89
2023-03-26T20:15:28.680Z,98743.42
2023-03-26T20:17:57.092Z,98737.98
2023-03-26T20:20:27.233Z,98739.51
2023-03-26T20:22:55.804Z,98737.63
2023-03-26T20:25:29.996Z,98735.27
2023-03-26T20:27:59.549Z,98736.43
2023-03-26T20:33:12.962Z,98731.79
2023-03-26T20:35:46.648Z,98731.50
2023-03-26T20:38:19.814Z,98727.66
2023-03-26T20:40:49.687Z,98723.89
2023-03-26T20:43:22.536Z,98718.45
2023-03-26T20:45:52.617Z,98716.23
2023-03-26T20:48:21.000Z,98715.95
2023-03-26T20:50:50.936Z,98715.83
2023-03-26T20:53:20.879Z,98711.63
2023-03-26T20:55:51.021Z,98711.83
2023-03-26T20:58:31.341Z,98707.88
2023-03-26T21:01:02.079Z,98708.17
2023-03-26T21:03:31.448Z,98706.70
2023-03-26T21:06:07.677Z,98706.01
2023-03-26T21:08:37.305Z,98698.86
2023-03-26T21:11:27.411Z,98701.98
2023-03-26T21:14:08.692Z,98702.83
2023-03-26T21:16:37.581Z,98703.79
2023-03-26T21:19:05.847Z,98708.20
2023-03-26T21:21:46.570Z,98707.73
2023-03-26T21:24:33.542Z,98711.11
2023-03-26T21:27:16.464Z,98715.50
2023-03-26T21:29:45.633Z,98718.31
2023-03-26T21:32:14.781Z,98719.98
2023-03-26T21:34:55.709Z,98718.71
2023-03-26T21:37:28.209Z,98712.77
2023-03-26T21:39:58.174Z,98711.14
2023-03-26T21:42:29.497Z,98704.67
2023-03-26T21:44:58.239Z,98701.70
2023-03-26T21:47:27.478Z,98690.15
2023-03-26T21:49:56.036Z,98688.02
2023-03-26T21:52:25.370Z,98685.27
2023-03-26T21:54:56.743Z,98682.73
2023-03-26T21:57:45.904Z,98683.80
2023-03-26T22:00:18.436Z,98684.94
2023-03-26T22:03:20.158Z,98689.04
2023-03-26T22:06:07.351Z,98703.23
2023-03-26T22:08:38.956Z,98701.63
2023-03-26T22:11:09.734Z,98696.92
2023-03-26T22:13:39.762Z,98687.30
2023-03-26T22:16:10.794Z,98689.98
2023-03-26T22:18:39.697Z,98690.75
2023-03-26T22:21:08.104Z,98692.05
2023-03-26T22:23:38.815Z,98692.71
2023-03-26T22:26:07.413Z,98692.58
2023-03-26T22:28:37.085Z,98691.91
2023-03-26T22:31:08.525Z,98705.63
2023-03-26T22:33:40.243Z,98699.52
2023-03-26T22:36:22.186Z,98693.11
2023-03-26T22:38:54.120Z,98699.42
2023-03-26T22:41:22.812Z,98707.63
2023-03-26T22:43:54.830Z,98705.88
2023-03-26T22:46:24.184Z,98703.09
2023-03-26T22:48:53.866Z,98702.05
2023-03-26T22:51:23.227Z,98698.83
2023-03-26T22:53:51.255Z,98694.90
2023-03-26T22:56:20.363Z,98696.27
2023-03-26T22:58:48.817Z,98689.84
2023-03-26T23:01:20.548Z,98690.77
2023-03-26T23:03:50.597Z,98697.73
2023-03-26T23:06:21.802Z,98700.08
2023-03-26T23:08:51.295Z,98701.66
2023-03-26T23:11:22.580Z,98706.14
2023-03-26T23:13:51.735Z,98708.86
2023-03-26T23:16:21.979Z,98709.46
2023-03-26T23:18:50.036Z,98711.09
2023-03-26T23:21:21.471Z,98713.15
2023-03-26T23:23:52.258Z,98708.88
2023-03-26T23:26:20.507Z,98705.45
2023-03-26T23:28:51.534Z,98706.04
2023-03-26T23:31:19.535Z,98706.27
2023-03-26T23:33:50.787Z,98704.03
2023-03-26T23:36:20.988Z,98706.55
2023-03-26T23:38:49.278Z,98707.15
2023-03-26T23:41:21.991Z,98711.45
2023-03-26T23:43:53.945Z,98706.42
2023-03-26T23:46:26.010Z,98701.27
2023-03-26T23:48:55.000Z,98701.40
2023-03-26T23:51:24.259Z,98709.39
2023-03-26T23:53:53.845Z,98713.13
2023-03-26T23:56:22.769Z,98718.73
2023-03-26T23:58:51.173Z,98718.26
